sensor_id;sensor_type;location;lat;lon;timestamp;temperature;humidity
13686;DHT22;6915;48.296;8.874;2023-03-03T00:00:32;-1.00;99.90
13686;DHT22;6915;48.296;8.874;2023-03-03T00:03:04;-1.00;99.90
13686;DHT22;6915;48.296;8.874;2023-03-03T00:05:34;-1.00;99.90
13686;DHT22;6915;48.296;8.874;2023-03-03T00:08:03;-1.00;99.90
13686;DHT22;6915;48.296;8.874;2023-03-03T00:10:38;-1.00;99.90
13686;DHT22;6915;48.296;8.874;2023-03-03T00:13:12;-1.10;99.90
13686;DHT22;6915;48.296;8.874;2023-03-03T00:15:44;-1.00;99.90
13686;DHT22;6915;48.296;8.874;2023-03-03T00:18:18;-1.00;99.90
13686;DHT22;6915;48.296;8.874;2023-03-03T00:20:51;-1.00;99.90
13686;DHT22;6915;48.296;8.874;2023-03-03T00:23:23;-1.00;99.90
13686;DHT22;6915;48.296;8.874;2023-03-03T00:25:54;-1.10;99.90
13686;DHT22;6915;48.296;8.874;2023-03-03T00:28:25;-1.10;99.90
13686;DHT22;6915;48.296;8.874;2023-03-03T00:30:56;-1.10;99.90
13686;DHT22;6915;48.296;8.874;2023-03-03T00:33:27;-1.10;99.90
13686;DHT22;6915;48.296;8.874;2023-03-03T00:35:56;-1.10;99.90
13686;DHT22;6915;48.296;8.874;2023-03-03T00:38:25;-1.00;99.90
13686;DHT22;6915;48.296;8.874;2023-03-03T00:40:54;-1.10;99.90
13686;DHT22;6915;48.296;8.874;2023-03-03T00:43:24;-1.10;99.90
13686;DHT22;6915;48.296;8.874;2023-03-03T00:45:57;-1.10;99.90
13686;DHT22;6915;48.296;8.874;2023-03-03T00:48:28;-1.20;99.90
13686;DHT22;6915;48.296;8.874;2023-03-03T00:50:58;-1.20;99.90
13686;DHT22;6915;48.296;8.874;2023-03-03T00:53:28;-1.10;99.90
13686;DHT22;6915;48.296;8.874;2023-03-03T00:55:58;-1.20;99.90
13686;DHT22;6915;48.296;8.874;2023-03-03T00:58:27;-1.20;99.90
13686;DHT22;6915;48.296;8.874;2023-03-03T01:00:57;-1.20;99.90
13686;DHT22;6915;48.296;8.874;2023-03-03T01:03:27;-1.10;99.90
13686;DHT22;6915;48.296;8.874;2023-03-03T01:05:56;-1.20;99.90
13686;DHT22;6915;48.296;8.874;2023-03-03T01:08:25;-1.20;99.90
13686;DHT22;6915;48.296;8.874;2023-03-03T01:10:55;-1.10;99.90
13686;DHT22;6915;48.296;8.874;2023-03-03T01:13:25;-1.20;99.90
13686;DHT22;6915;48.296;8.874;2023-03-03T01:15:54;-1.10;99.90
13686;DHT22;6915;48.296;8.874;2023-03-03T01:18:23;-1.10;99.90
13686;DHT22;6915;48.296;8.874;2023-03-03T01:20:52;-1.10;99.90
13686;DHT22;6915;48.296;8.874;2023-03-03T01:23:21;-1.10;99.90
13686;DHT22;6915;48.296;8.874;2023-03-03T01:25:50;-1.10;99.90
13686;DHT22;6915;48.296;8.874;2023-03-03T01:28:18;-1.10;99.90
13686;DHT22;6915;48.296;8.874;2023-03-03T01:30:47;-1.00;99.90
13686;DHT22;6915;48.296;8.874;2023-03-03T01:33:18;-1.00;99.90
13686;DHT22;6915;48.296;8.874;2023-03-03T01:35:47;-1.00;99.90
13686;DHT22;6915;48.296;8.874;2023-03-03T01:38:17;-1.00;99.90
13686;DHT22;6915;48.296;8.874;2023-03-03T01:40:53;-0.90;99.90
13686;DHT22;6915;48.296;8.874;2023-03-03T01:43:22;-0.90;99.90
13686;DHT22;6915;48.296;8.874;2023-03-03T01:49:04;-1.00;99.90
13686;DHT22;6915;48.296;8.874;2023-03-03T01:51:37;-1.00;99.90
13686;DHT22;6915;48.296;8.874;2023-03-03T01:54:09;-1.00;99.90
13686;DHT22;6915;48.296;8.874;2023-03-03T01:56:39;-1.00;99.90
13686;DHT22;6915;48.296;8.874;2023-03-03T01:59:13;-0.90;99.90
13686;DHT22;6915;48.296;8.874;2023-03-03T02:01:43;-0.90;99.90
13686;DHT22;6915;48.296;8.874;2023-03-03T02:04:14;-0.90;99.90
13686;DHT22;6915;48.296;8.874;2023-03-03T02:06:48;-0.90;99.90
13686;DHT22;6915;48.296;8.874;2023-03-03T02:09:23;-0.90;99.90
13686;DHT22;6915;48.296;8.874;2023-03-03T02:11:57;-0.90;99.90
13686;DHT22;6915;48.296;8.874;2023-03-03T02:14:26;-0.80;99.90
13686;DHT22;6915;48.296;8.874;2023-03-03T02:16:55;-0.90;99.90
13686;DHT22;6915;48.296;8.874;2023-03-03T02:19:29;-0.90;99.90
13686;DHT22;6915;48.296;8.874;2023-03-03T02:22:00;-0.90;99.90
13686;DHT22;6915;48.296;8.874;2023-03-03T02:24:32;-0.90;99.90
13686;DHT22;6915;48.296;8.874;2023-03-03T02:27:03;-0.90;99.90
13686;DHT22;6915;48.296;8.874;2023-03-03T02:29:32;-1.00;99.90
13686;DHT22;6915;48.296;8.874;2023-03-03T02:32:00;-1.00;99.90
13686;DHT22;6915;48.296;8.874;2023-03-03T02:34:41;-1.10;99.90
13686;DHT22;6915;48.296;8.874;2023-03-03T02:37:14;-1.10;99.90
13686;DHT22;6915;48.296;8.874;2023-03-03T02:39:44;-1.20;99.90
13686;DHT22;6915;48.296;8.874;2023-03-03T02:42:18;-1.30;99.90
13686;DHT22;6915;48.296;8.874;2023-03-03T02:44:49;-1.30;99.90
13686;DHT22;6915;48.296;8.874;2023-03-03T02:47:18;-1.40;99.90
13686;DHT22;6915;48.296;8.874;2023-03-03T02:49:46;-1.50;99.90
13686;DHT22;6915;48.296;8.874;2023-03-03T02:52:15;-1.40;99.90
13686;DHT22;6915;48.296;8.874;2023-03-03T02:54:45;-1.60;99.90
13686;DHT22;6915;48.296;8.874;2023-03-03T02:57:16;-1.60;99.90
13686;DHT22;6915;48.296;8.874;2023-03-03T03:02:18;-1.70;99.90
13686;DHT22;6915;48.296;8.874;2023-03-03T03:04:47;-1.70;99.90
13686;DHT22;6915;48.296;8.874;2023-03-03T03:07:16;-1.80;99.90
13686;DHT22;6915;48.296;8.874;2023-03-03T03:09:44;-1.70;99.90
13686;DHT22;6915;48.296;8.874;2023-03-03T03:12:15;-2.00;99.90
13686;DHT22;6915;48.296;8.874;2023-03-03T03:14:45;-2.00;99.90
13686;DHT22;6915;48.296;8.874;2023-03-03T03:17:14;-1.90;99.90
13686;DHT22;6915;48.296;8.874;2023-03-03T03:19:43;-1.90;99.90
13686;DHT22;6915;48.296;8.874;2023-03-03T03:22:11;-1.90;99.90
13686;DHT22;6915;48.296;8.874;2023-03-03T03:24:40;-2.00;99.90
13686;DHT22;6915;48.296;8.874;2023-03-03T03:27:09;-2.00;99.90
13686;DHT22;6915;48.296;8.874;2023-03-03T03:29:40;-1.90;99.90
13686;DHT22;6915;48.296;8.874;2023-03-03T03:32:08;-1.90;99.90
13686;DHT22;6915;48.296;8.874;2023-03-03T03:34:38;-1.90;99.90
13686;DHT22;6915;48.296;8.874;2023-03-03T03:37:07;-1.80;99.90
13686;DHT22;6915;48.296;8.874;2023-03-03T03:39:36;-1.80;99.90
13686;DHT22;6915;48.296;8.874;2023-03-03T03:42:05;-1.90;99.90
13686;DHT22;6915;48.296;8.874;2023-03-03T03:44:34;-1.80;99.90
13686;DHT22;6915;48.296;8.874;2023-03-03T03:47:03;-1.80;99.90
13686;DHT22;6915;48.296;8.874;2023-03-03T03:49:32;-1.80;99.90
13686;DHT22;6915;48.296;8.874;2023-03-03T03:52:01;-1.80;99.90
13686;DHT22;6915;48.296;8.874;2023-03-03T03:54:29;-1.70;99.90
13686;DHT22;6915;48.296;8.874;2023-03-03T03:56:58;-1.60;99.90
13686;DHT22;6915;48.296;8.874;2023-03-03T03:59:27;-1.60;99.90
13686;DHT22;6915;48.296;8.874;2023-03-03T04:02:08;-1.60;99.90
13686;DHT22;6915;48.296;8.874;2023-03-03T04:04:37;-1.60;99.90
13686;DHT22;6915;48.296;8.874;2023-03-03T04:07:05;-1.50;99.90
13686;DHT22;6915;48.296;8.874;2023-03-03T04:09:34;-1.50;99.90
13686;DHT22;6915;48.296;8.874;2023-03-03T04:12:03;-1.50;99.90
13686;DHT22;6915;48.296;8.874;2023-03-03T04:14:32;-1.30;99.90
13686;DHT22;6915;48.296;8.874;2023-03-03T04:17:00;-1.40;99.90
13686;DHT22;6915;48.296;8.874;2023-03-03T04:19:30;-1.50;99.90
13686;DHT22;6915;48.296;8.874;2023-03-03T04:21:59;-1.30;99.90
13686;DHT22;6915;48.296;8.874;2023-03-03T04:24:28;-1.20;99.90
13686;DHT22;6915;48.296;8.874;2023-03-03T04:26:56;-1.10;99.90
13686;DHT22;6915;48.296;8.874;2023-03-03T04:29:25;-1.10;99.90
13686;DHT22;6915;48.296;8.874;2023-03-03T04:31:53;-1.00;99.90
13686;DHT22;6915;48.296;8.874;2023-03-03T04:34:25;-1.20;99.90
13686;DHT22;6915;48.296;8.874;2023-03-03T04:36:55;-1.20;99.90
13686;DHT22;6915;48.296;8.874;2023-03-03T04:39:24;-1.20;99.90
13686;DHT22;6915;48.296;8.874;2023-03-03T04:41:53;-1.30;99.90
13686;DHT22;6915;48.296;8.874;2023-03-03T04:44:22;-1.20;99.90
13686;DHT22;6915;48.296;8.874;2023-03-03T04:46:50;-1.20;99.90
13686;DHT22;6915;48.296;8.874;2023-03-03T04:49:19;-1.00;99.90
13686;DHT22;6915;48.296;8.874;2023-03-03T04:51:47;-1.10;99.90
13686;DHT22;6915;48.296;8.874;2023-03-03T04:54:17;-1.10;99.90
13686;DHT22;6915;48.296;8.874;2023-03-03T04:56:46;-1.00;99.90
13686;DHT22;6915;48.296;8.874;2023-03-03T04:59:15;-1.00;99.90
13686;DHT22;6915;48.296;8.874;2023-03-03T05:01:44;-1.00;99.90
13686;DHT22;6915;48.296;8.874;2023-03-03T05:04:13;-1.00;99.90
13686;DHT22;6915;48.296;8.874;2023-03-03T05:06:42;-1.00;99.90
13686;DHT22;6915;48.296;8.874;2023-03-03T05:09:11;-1.10;99.90
13686;DHT22;6915;48.296;8.874;2023-03-03T05:11:40;-0.90;99.90
13686;DHT22;6915;48.296;8.874;2023-03-03T05:14:09;-1.00;99.90
13686;DHT22;6915;48.296;8.874;2023-03-03T05:16:38;-1.00;99.90
13686;DHT22;6915;48.296;8.874;2023-03-03T05:19:07;-1.00;99.90
13686;DHT22;6915;48.296;8.874;2023-03-03T05:21:36;-1.00;99.90
13686;DHT22;6915;48.296;8.874;2023-03-03T05:24:09;-0.90;99.90
13686;DHT22;6915;48.296;8.874;2023-03-03T05:26:38;-0.90;99.90
13686;DHT22;6915;48.296;8.874;2023-03-03T05:29:09;-0.90;99.90
13686;DHT22;6915;48.296;8.874;2023-03-03T05:31:37;-0.90;99.90
13686;DHT22;6915;48.296;8.874;2023-03-03T05:34:06;-0.90;99.90
13686;DHT22;6915;48.296;8.874;2023-03-03T05:36:34;-0.90;99.90
13686;DHT22;6915;48.296;8.874;2023-03-03T05:39:04;-0.90;99.90
13686;DHT22;6915;48.296;8.874;2023-03-03T05:41:32;-0.80;99.90
13686;DHT22;6915;48.296;8.874;2023-03-03T05:44:03;-0.80;99.90
13686;DHT22;6915;48.296;8.874;2023-03-03T05:46:33;-0.80;99.90
13686;DHT22;6915;48.296;8.874;2023-03-03T05:49:03;-0.80;99.90
13686;DHT22;6915;48.296;8.874;2023-03-03T05:51:31;-0.80;99.90
13686;DHT22;6915;48.296;8.874;2023-03-03T05:54:00;-0.80;99.90
13686;DHT22;6915;48.296;8.874;2023-03-03T05:56:29;-0.80;99.90
13686;DHT22;6915;48.296;8.874;2023-03-03T05:58:57;-0.70;99.90
13686;DHT22;6915;48.296;8.874;2023-03-03T06:01:26;-0.80;99.90
13686;DHT22;6915;48.296;8.874;2023-03-03T06:03:57;-0.80;99.90
13686;DHT22;6915;48.296;8.874;2023-03-03T06:06:27;-0.80;99.90
13686;DHT22;6915;48.296;8.874;2023-03-03T06:08:55;-0.80;99.90
13686;DHT22;6915;48.296;8.874;2023-03-03T06:11:24;-0.70;99.90
13686;DHT22;6915;48.296;8.874;2023-03-03T06:13:52;-0.70;99.90
13686;DHT22;6915;48.296;8.874;2023-03-03T06:16:21;-0.70;99.90
13686;DHT22;6915;48.296;8.874;2023-03-03T06:18:50;-0.70;99.90
13686;DHT22;6915;48.296;8.874;2023-03-03T06:21:20;-0.70;99.90
13686;DHT22;6915;48.296;8.874;2023-03-03T06:23:49;-0.70;99.90
13686;DHT22;6915;48.296;8.874;2023-03-03T06:26:18;-0.50;99.90
13686;DHT22;6915;48.296;8.874;2023-03-03T06:28:46;-0.60;99.90
13686;DHT22;6915;48.296;8.874;2023-03-03T06:31:16;-0.70;99.90
13686;DHT22;6915;48.296;8.874;2023-03-03T06:33:45;-0.60;99.90
13686;DHT22;6915;48.296;8.874;2023-03-03T06:36:14;-0.60;99.90
13686;DHT22;6915;48.296;8.874;2023-03-03T06:38:44;-0.60;99.90
13686;DHT22;6915;48.296;8.874;2023-03-03T06:41:13;-0.60;99.90
13686;DHT22;6915;48.296;8.874;2023-03-03T06:43:41;-0.50;99.90
13686;DHT22;6915;48.296;8.874;2023-03-03T06:46:10;-0.50;99.90
13686;DHT22;6915;48.296;8.874;2023-03-03T06:48:38;-0.40;99.90
13686;DHT22;6915;48.296;8.874;2023-03-03T06:51:22;-0.50;99.90
13686;DHT22;6915;48.296;8.874;2023-03-03T06:53:56;-0.40;99.90
13686;DHT22;6915;48.296;8.874;2023-03-03T06:56:26;-0.20;99.90
13686;DHT22;6915;48.296;8.874;2023-03-03T06:58:55;-0.30;99.90
13686;DHT22;6915;48.296;8.874;2023-03-03T07:01:25;-0.30;99.90
13686;DHT22;6915;48.296;8.874;2023-03-03T07:03:55;-0.20;99.90
13686;DHT22;6915;48.296;8.874;2023-03-03T07:06:25;-0.20;99.90
13686;DHT22;6915;48.296;8.874;2023-03-03T07:08:55;-0.10;99.90
13686;DHT22;6915;48.296;8.874;2023-03-03T07:11:25;-0.10;99.90
13686;DHT22;6915;48.296;8.874;2023-03-03T07:13:56;-0.10;99.90
13686;DHT22;6915;48.296;8.874;2023-03-03T07:16:27;0.00;99.90
13686;DHT22;6915;48.296;8.874;2023-03-03T07:18:58;0.00;99.90
13686;DHT22;6915;48.296;8.874;2023-03-03T07:21:33;0.00;99.90
13686;DHT22;6915;48.296;8.874;2023-03-03T07:24:17;0.10;99.90
13686;DHT22;6915;48.296;8.874;2023-03-03T07:26:46;0.00;99.90
13686;DHT22;6915;48.296;8.874;2023-03-03T07:29:20;0.20;99.90
13686;DHT22;6915;48.296;8.874;2023-03-03T07:31:49;0.20;99.90
13686;DHT22;6915;48.296;8.874;2023-03-03T07:34:22;0.40;99.90
13686;DHT22;6915;48.296;8.874;2023-03-03T07:36:52;0.30;99.90
13686;DHT22;6915;48.296;8.874;2023-03-03T07:39:28;0.30;99.90
13686;DHT22;6915;48.296;8.874;2023-03-03T07:44:43;0.40;99.90
13686;DHT22;6915;48.296;8.874;2023-03-03T07:47:26;0.50;99.90
13686;DHT22;6915;48.296;8.874;2023-03-03T07:49:59;0.50;99.90
13686;DHT22;6915;48.296;8.874;2023-03-03T07:52:29;0.60;99.90
13686;DHT22;6915;48.296;8.874;2023-03-03T07:55:01;0.60;99.90
13686;DHT22;6915;48.296;8.874;2023-03-03T07:57:40;0.70;99.90
13686;DHT22;6915;48.296;8.874;2023-03-03T08:03:13;0.80;99.90
13686;DHT22;6915;48.296;8.874;2023-03-03T08:05:46;0.90;99.90
13686;DHT22;6915;48.296;8.874;2023-03-03T08:08:21;0.90;99.90
13686;DHT22;6915;48.296;8.874;2023-03-03T08:10:58;0.90;99.90
13686;DHT22;6915;48.296;8.874;2023-03-03T08:13:35;1.00;99.90
13686;DHT22;6915;48.296;8.874;2023-03-03T08:16:20;1.20;99.90
13686;DHT22;6915;48.296;8.874;2023-03-03T08:19:01;1.10;99.90
13686;DHT22;6915;48.296;8.874;2023-03-03T08:21:31;1.20;99.90
13686;DHT22;6915;48.296;8.874;2023-03-03T08:24:01;1.30;99.90
13686;DHT22;6915;48.296;8.874;2023-03-03T08:26:31;1.40;99.90
13686;DHT22;6915;48.296;8.874;2023-03-03T08:29:00;1.40;99.90
13686;DHT22;6915;48.296;8.874;2023-03-03T08:31:28;1.50;99.90
13686;DHT22;6915;48.296;8.874;2023-03-03T08:33:58;1.60;99.90
13686;DHT22;6915;48.296;8.874;2023-03-03T08:36:28;1.80;99.90
13686;DHT22;6915;48.296;8.874;2023-03-03T08:38:57;1.70;99.90
13686;DHT22;6915;48.296;8.874;2023-03-03T08:41:25;1.80;99.90
13686;DHT22;6915;48.296;8.874;2023-03-03T08:43:56;1.90;99.90
13686;DHT22;6915;48.296;8.874;2023-03-03T08:46:25;2.00;99.90
13686;DHT22;6915;48.296;8.874;2023-03-03T08:48:54;2.10;99.90
13686;DHT22;6915;48.296;8.874;2023-03-03T08:51:23;2.20;99.90
13686;DHT22;6915;48.296;8.874;2023-03-03T08:53:50;2.30;99.90
13686;DHT22;6915;48.296;8.874;2023-03-03T08:56:20;2.40;99.90
13686;DHT22;6915;48.296;8.874;2023-03-03T08:58:49;2.30;99.90
13686;DHT22;6915;48.296;8.874;2023-03-03T09:01:19;2.70;99.90
13686;DHT22;6915;48.296;8.874;2023-03-03T09:03:48;2.60;99.90
13686;DHT22;6915;48.296;8.874;2023-03-03T09:06:17;2.60;99.90
13686;DHT22;6915;48.296;8.874;2023-03-03T09:08:45;2.60;99.90
13686;DHT22;6915;48.296;8.874;2023-03-03T09:11:15;2.70;99.90
13686;DHT22;6915;48.296;8.874;2023-03-03T09:13:47;2.80;99.90
13686;DHT22;6915;48.296;8.874;2023-03-03T09:16:21;3.00;99.90
13686;DHT22;6915;48.296;8.874;2023-03-03T09:18:49;3.10;99.90
13686;DHT22;6915;48.296;8.874;2023-03-03T09:21:23;3.20;99.90
13686;DHT22;6915;48.296;8.874;2023-03-03T09:23:57;3.20;99.90
13686;DHT22;6915;48.296;8.874;2023-03-03T09:26:27;3.40;99.90
13686;DHT22;6915;48.296;8.874;2023-03-03T09:29:00;3.60;99.90
13686;DHT22;6915;48.296;8.874;2023-03-03T09:31:40;3.60;99.90
13686;DHT22;6915;48.296;8.874;2023-03-03T09:34:21;3.70;99.90
13686;DHT22;6915;48.296;8.874;2023-03-03T09:36:50;3.90;99.90
13686;DHT22;6915;48.296;8.874;2023-03-03T09:39:21;4.00;99.90
13686;DHT22;6915;48.296;8.874;2023-03-03T09:42:36;4.10;99.90
13686;DHT22;6915;48.296;8.874;2023-03-03T09:45:19;4.30;99.90
13686;DHT22;6915;48.296;8.874;2023-03-03T09:51:00;4.60;99.90
13686;DHT22;6915;48.296;8.874;2023-03-03T09:53:46;4.40;99.90
13686;DHT22;6915;48.296;8.874;2023-03-03T09:56:21;4.40;99.90
13686;DHT22;6915;48.296;8.874;2023-03-03T09:59:02;4.70;99.90
13686;DHT22;6915;48.296;8.874;2023-03-03T10:01:45;4.50;99.90
13686;DHT22;6915;48.296;8.874;2023-03-03T10:04:44;4.50;99.90
13686;DHT22;6915;48.296;8.874;2023-03-03T10:07:24;4.70;99.90
13686;DHT22;6915;48.296;8.874;2023-03-03T10:13:06;4.90;99.90
13686;DHT22;6915;48.296;8.874;2023-03-03T10:15:47;4.80;99.90
13686;DHT22;6915;48.296;8.874;2023-03-03T10:18:28;4.80;99.90
13686;DHT22;6915;48.296;8.874;2023-03-03T10:21:06;4.70;99.90
13686;DHT22;6915;48.296;8.874;2023-03-03T10:23:51;4.80;99.90
13686;DHT22;6915;48.296;8.874;2023-03-03T10:26:38;4.70;99.90
13686;DHT22;6915;48.296;8.874;2023-03-03T10:29:20;4.70;99.90
13686;DHT22;6915;48.296;8.874;2023-03-03T10:32:05;4.50;99.90
13686;DHT22;6915;48.296;8.874;2023-03-03T10:34:53;4.60;99.90
13686;DHT22;6915;48.296;8.874;2023-03-03T10:37:45;4.90;99.90
13686;DHT22;6915;48.296;8.874;2023-03-03T10:40:24;5.10;99.90
13686;DHT22;6915;48.296;8.874;2023-03-03T10:43:11;5.20;99.90
13686;DHT22;6915;48.296;8.874;2023-03-03T10:46:09;5.20;99.90
13686;DHT22;6915;48.296;8.874;2023-03-03T10:49:01;5.40;99.90
13686;DHT22;6915;48.296;8.874;2023-03-03T10:51:40;5.30;99.90
13686;DHT22;6915;48.296;8.874;2023-03-03T10:54:19;5.30;99.90
13686;DHT22;6915;48.296;8.874;2023-03-03T10:56:52;5.30;99.90
13686;DHT22;6915;48.296;8.874;2023-03-03T10:59:33;5.50;99.90
13686;DHT22;6915;48.296;8.874;2023-03-03T11:02:10;5.60;99.90
13686;DHT22;6915;48.296;8.874;2023-03-03T11:07:45;5.40;99.90
13686;DHT22;6915;48.296;8.874;2023-03-03T11:10:26;5.50;99.90
13686;DHT22;6915;48.296;8.874;2023-03-03T11:13:03;5.80;99.90
13686;DHT22;6915;48.296;8.874;2023-03-03T11:15:43;5.50;99.90
13686;DHT22;6915;48.296;8.874;2023-03-03T11:18:24;5.50;99.90
13686;DHT22;6915;48.296;8.874;2023-03-03T11:21:04;5.50;99.90
13686;DHT22;6915;48.296;8.874;2023-03-03T11:24:03;5.60;99.90
13686;DHT22;6915;48.296;8.874;2023-03-03T11:26:54;5.60;99.90
13686;DHT22;6915;48.296;8.874;2023-03-03T11:29:44;5.70;99.90
13686;DHT22;6915;48.296;8.874;2023-03-03T11:32:23;5.80;99.90
13686;DHT22;6915;48.296;8.874;2023-03-03T11:35:03;5.90;99.90
13686;DHT22;6915;48.296;8.874;2023-03-03T11:37:44;6.10;99.90
13686;DHT22;6915;48.296;8.874;2023-03-03T11:40:20;6.10;99.90
13686;DHT22;6915;48.296;8.874;2023-03-03T11:42:59;6.10;99.90
13686;DHT22;6915;48.296;8.874;2023-03-03T11:45:33;6.00;99.90
13686;DHT22;6915;48.296;8.874;2023-03-03T11:48:10;6.10;99.90
13686;DHT22;6915;48.296;8.874;2023-03-03T11:50:44;6.20;99.90
13686;DHT22;6915;48.296;8.874;2023-03-03T11:53:28;6.00;99.90
13686;DHT22;6915;48.296;8.874;2023-03-03T11:56:03;6.10;99.90
13686;DHT22;6915;48.296;8.874;2023-03-03T11:58:38;6.10;99.90
13686;DHT22;6915;48.296;8.874;2023-03-03T12:01:14;6.30;99.90
13686;DHT22;6915;48.296;8.874;2023-03-03T12:03:51;6.60;99.90
13686;DHT22;6915;48.296;8.874;2023-03-03T12:06:27;6.50;99.90
13686;DHT22;6915;48.296;8.874;2023-03-03T12:09:07;6.70;99.90
13686;DHT22;6915;48.296;8.874;2023-03-03T12:11:45;6.90;99.90
13686;DHT22;6915;48.296;8.874;2023-03-03T12:14:29;7.30;99.90
13686;DHT22;6915;48.296;8.874;2023-03-03T12:17:05;7.20;99.90
13686;DHT22;6915;48.296;8.874;2023-03-03T12:19:49;7.40;99.90
13686;DHT22;6915;48.296;8.874;2023-03-03T12:22:30;7.30;99.90
13686;DHT22;6915;48.296;8.874;2023-03-03T12:25:14;7.50;99.90
13686;DHT22;6915;48.296;8.874;2023-03-03T12:27:49;7.10;99.90
13686;DHT22;6915;48.296;8.874;2023-03-03T12:30:32;7.10;99.90
13686;DHT22;6915;48.296;8.874;2023-03-03T12:33:18;7.10;99.90
13686;DHT22;6915;48.296;8.874;2023-03-03T12:35:53;7.20;99.90
13686;DHT22;6915;48.296;8.874;2023-03-03T12:38:33;7.20;99.90
13686;DHT22;6915;48.296;8.874;2023-03-03T12:41:06;7.30;99.90
13686;DHT22;6915;48.296;8.874;2023-03-03T12:46:20;7.50;99.90
13686;DHT22;6915;48.296;8.874;2023-03-03T12:48:52;7.60;99.90
13686;DHT22;6915;48.296;8.874;2023-03-03T12:51:33;7.70;99.90
13686;DHT22;6915;48.296;8.874;2023-03-03T12:57:18;7.50;99.90
13686;DHT22;6915;48.296;8.874;2023-03-03T12:59:59;7.60;99.90
13686;DHT22;6915;48.296;8.874;2023-03-03T13:02:38;7.50;99.90
13686;DHT22;6915;48.296;8.874;2023-03-03T13:05:20;7.50;99.90
13686;DHT22;6915;48.296;8.874;2023-03-03T13:07:58;7.50;99.90
13686;DHT22;6915;48.296;8.874;2023-03-03T13:10:37;7.60;99.90
13686;DHT22;6915;48.296;8.874;2023-03-03T13:13:12;7.70;99.90
13686;DHT22;6915;48.296;8.874;2023-03-03T13:15:47;7.80;99.90
13686;DHT22;6915;48.296;8.874;2023-03-03T13:18:27;7.80;99.90
13686;DHT22;6915;48.296;8.874;2023-03-03T13:20:58;7.60;99.90
13686;DHT22;6915;48.296;8.874;2023-03-03T13:23:40;7.60;99.90
13686;DHT22;6915;48.296;8.874;2023-03-03T13:26:19;7.70;99.90
13686;DHT22;6915;48.296;8.874;2023-03-03T13:29:07;7.80;99.90
13686;DHT22;6915;48.296;8.874;2023-03-03T13:31:40;7.60;99.90
13686;DHT22;6915;48.296;8.874;2023-03-03T13:34:19;7.50;99.90
13686;DHT22;6915;48.296;8.874;2023-03-03T13:36:52;7.50;99.90
13686;DHT22;6915;48.296;8.874;2023-03-03T13:39:25;7.80;99.90
13686;DHT22;6915;48.296;8.874;2023-03-03T13:41:58;8.00;99.90
13686;DHT22;6915;48.296;8.874;2023-03-03T13:44:33;8.00;99.90
13686;DHT22;6915;48.296;8.874;2023-03-03T13:47:12;7.90;99.90
13686;DHT22;6915;48.296;8.874;2023-03-03T13:49:58;7.70;99.90
13686;DHT22;6915;48.296;8.874;2023-03-03T13:52:30;7.70;99.90
13686;DHT22;6915;48.296;8.874;2023-03-03T13:55:18;7.70;99.90
13686;DHT22;6915;48.296;8.874;2023-03-03T13:57:55;7.90;99.90
13686;DHT22;6915;48.296;8.874;2023-03-03T14:00:43;8.00;99.90
13686;DHT22;6915;48.296;8.874;2023-03-03T14:03:31;8.10;99.90
13686;DHT22;6915;48.296;8.874;2023-03-03T14:06:12;8.00;99.90
13686;DHT22;6915;48.296;8.874;2023-03-03T14:08:58;8.00;99.90
13686;DHT22;6915;48.296;8.874;2023-03-03T14:11:32;8.10;99.90
13686;DHT22;6915;48.296;8.874;2023-03-03T14:14:10;7.90;99.90
13686;DHT22;6915;48.296;8.874;2023-03-03T14:16:51;7.80;99.90
13686;DHT22;6915;48.296;8.874;2023-03-03T14:19:25;7.90;99.90
13686;DHT22;6915;48.296;8.874;2023-03-03T14:22:13;7.90;99.90
13686;DHT22;6915;48.296;8.874;2023-03-03T14:24:59;7.70;99.90
13686;DHT22;6915;48.296;8.874;2023-03-03T14:27:34;7.90;99.90
13686;DHT22;6915;48.296;8.874;2023-03-03T14:30:29;7.90;99.90
13686;DHT22;6915;48.296;8.874;2023-03-03T14:33:04;7.90;99.90
13686;DHT22;6915;48.296;8.874;2023-03-03T14:35:35;7.90;99.90
13686;DHT22;6915;48.296;8.874;2023-03-03T14:38:08;7.90;99.90
13686;DHT22;6915;48.296;8.874;2023-03-03T14:40:43;8.00;99.90
13686;DHT22;6915;48.296;8.874;2023-03-03T14:43:24;8.10;99.90
13686;DHT22;6915;48.296;8.874;2023-03-03T14:45:55;8.10;99.90
13686;DHT22;6915;48.296;8.874;2023-03-03T14:48:25;8.10;99.90
13686;DHT22;6915;48.296;8.874;2023-03-03T14:50:57;8.20;99.90
13686;DHT22;6915;48.296;8.874;2023-03-03T14:53:38;8.20;99.90
13686;DHT22;6915;48.296;8.874;2023-03-03T14:56:26;8.00;99.90
13686;DHT22;6915;48.296;8.874;2023-03-03T14:59:15;8.00;99.90
13686;DHT22;6915;48.296;8.874;2023-03-03T15:01:46;8.00;99.90
13686;DHT22;6915;48.296;8.874;2023-03-03T15:04:27;8.00;99.90
13686;DHT22;6915;48.296;8.874;2023-03-03T15:06:57;7.90;99.90
13686;DHT22;6915;48.296;8.874;2023-03-03T15:09:32;7.90;99.90
13686;DHT22;6915;48.296;8.874;2023-03-03T15:12:17;7.90;99.90
13686;DHT22;6915;48.296;8.874;2023-03-03T15:14:50;7.80;99.90
13686;DHT22;6915;48.296;8.874;2023-03-03T15:17:32;7.90;99.90
13686;DHT22;6915;48.296;8.874;2023-03-03T15:20:08;7.90;99.90
13686;DHT22;6915;48.296;8.874;2023-03-03T15:22:52;7.80;99.90
13686;DHT22;6915;48.296;8.874;2023-03-03T15:25:27;7.60;99.90
13686;DHT22;6915;48.296;8.874;2023-03-03T15:28:09;7.70;99.90
13686;DHT22;6915;48.296;8.874;2023-03-03T15:30:44;7.80;99.90
13686;DHT22;6915;48.296;8.874;2023-03-03T15:33:17;7.60;99.90
13686;DHT22;6915;48.296;8.874;2023-03-03T15:35:55;7.50;99.90
13686;DHT22;6915;48.296;8.874;2023-03-03T15:38:33;7.60;99.90
13686;DHT22;6915;48.296;8.874;2023-03-03T15:41:16;7.60;99.90
13686;DHT22;6915;48.296;8.874;2023-03-03T15:43:51;7.60;99.90
13686;DHT22;6915;48.296;8.874;2023-03-03T15:46:27;7.50;99.90
13686;DHT22;6915;48.296;8.874;2023-03-03T15:49:12;7.50;99.90
13686;DHT22;6915;48.296;8.874;2023-03-03T15:51:49;7.40;99.90
13686;DHT22;6915;48.296;8.874;2023-03-03T15:54:27;7.30;99.90
13686;DHT22;6915;48.296;8.874;2023-03-03T15:57:02;7.40;99.90
13686;DHT22;6915;48.296;8.874;2023-03-03T15:59:48;7.30;99.90
13686;DHT22;6915;48.296;8.874;2023-03-03T16:02:22;7.30;99.90
13686;DHT22;6915;48.296;8.874;2023-03-03T16:05:03;7.30;99.90
13686;DHT22;6915;48.296;8.874;2023-03-03T16:07:41;7.20;99.90
13686;DHT22;6915;48.296;8.874;2023-03-03T16:10:18;7.30;99.90
13686;DHT22;6915;48.296;8.874;2023-03-03T16:12:54;7.20;99.90
13686;DHT22;6915;48.296;8.874;2023-03-03T16:15:42;7.30;99.90
13686;DHT22;6915;48.296;8.874;2023-03-03T16:18:15;7.20;99.90
13686;DHT22;6915;48.296;8.874;2023-03-03T16:20:55;7.00;99.90
13686;DHT22;6915;48.296;8.874;2023-03-03T16:23:33;7.20;99.90
13686;DHT22;6915;48.296;8.874;2023-03-03T16:26:17;7.00;99.90
13686;DHT22;6915;48.296;8.874;2023-03-03T16:29:00;6.90;99.90
13686;DHT22;6915;48.296;8.874;2023-03-03T16:31:38;6.90;99.90
13686;DHT22;6915;48.296;8.874;2023-03-03T16:34:17;6.80;99.90
13686;DHT22;6915;48.296;8.874;2023-03-03T16:37:00;6.80;99.90
13686;DHT22;6915;48.296;8.874;2023-03-03T16:39:37;6.70;99.90
13686;DHT22;6915;48.296;8.874;2023-03-03T16:42:15;6.60;99.90
13686;DHT22;6915;48.296;8.874;2023-03-03T16:44:56;6.50;99.90
13686;DHT22;6915;48.296;8.874;2023-03-03T16:47:38;6.50;99.90
13686;DHT22;6915;48.296;8.874;2023-03-03T16:50:19;6.40;99.90
13686;DHT22;6915;48.296;8.874;2023-03-03T16:52:58;6.30;99.90
13686;DHT22;6915;48.296;8.874;2023-03-03T16:55:29;6.30;99.90
13686;DHT22;6915;48.296;8.874;2023-03-03T16:58:15;6.20;99.90
13686;DHT22;6915;48.296;8.874;2023-03-03T17:00:54;6.10;99.90
13686;DHT22;6915;48.296;8.874;2023-03-03T17:06:21;5.90;99.90
13686;DHT22;6915;48.296;8.874;2023-03-03T17:09:01;5.90;99.90